createdAt,value
2023-05-01T00:01:30.336Z,15.03
2023-05-01T00:03:57.023Z,14.10
2023-05-01T00:06:23.976Z,14.80
2023-05-01T00:08:50.530Z,15.13
2023-05-01T00:11:17.025Z,15.53
2023-05-01T00:13:43.462Z,15.03
2023-05-01T00:16:11.962Z,15.10
2023-05-01T00:18:39.061Z,15.20
2023-05-01T00:21:05.837Z,15.00
2023-05-01T00:23:32.377Z,15.73
2023-05-01T00:25:59.017Z,14.23
2023-05-01T00:28:25.506Z,15.93
2023-05-01T00:30:52.173Z,16.00
2023-05-01T00:33:18.973Z,15.80
2023-05-01T00:35:45.859Z,16.93
2023-05-01T00:38:13.048Z,15.60
2023-05-01T00:40:46.591Z,15.47
2023-05-01T00:43:13.736Z,14.80
2023-05-01T00:45:45.296Z,15.90
2023-05-01T00:48:12.015Z,15.53
2023-05-01T00:50:39.234Z,15.40
2023-05-01T00:53:06.659Z,16.83
2023-05-01T00:55:36.420Z,15.80
2023-05-01T00:58:02.988Z,16.73
2023-05-01T01:00:29.731Z,16.43
2023-05-01T01:02:56.659Z,15.13
2023-05-01T01:05:27.301Z,16.20
2023-05-01T01:08:05.528Z,17.53
2023-05-01T01:10:38.029Z,16.23
2023-05-01T01:13:29.131Z,16.87
2023-05-01T01:16:19.412Z,16.93
2023-05-01T01:18:56.568Z,17.17
2023-05-01T01:21:34.038Z,16.70
2023-05-01T01:24:20.884Z,15.93
2023-05-01T01:27:11.972Z,15.77
2023-05-01T01:30:23.056Z,16.70
2023-05-01T01:32:56.996Z,16.53
2023-05-01T01:35:27.002Z,16.63
2023-05-01T01:38:06.687Z,16.67
2023-05-01T01:40:43.848Z,16.73
2023-05-01T01:43:13.846Z,16.50
2023-05-01T01:45:43.550Z,16.77
2023-05-01T01:48:17.870Z,17.63
2023-05-01T01:50:46.741Z,17.00
2023-05-01T01:53:17.687Z,17.77
2023-05-01T01:55:48.124Z,18.07
2023-05-01T01:58:17.054Z,18.40
2023-05-01T02:00:45.445Z,17.40
2023-05-01T02:03:13.443Z,17.37
2023-05-01T02:05:43.223Z,17.70
2023-05-01T02:08:12.092Z,17.37
2023-05-01T02:10:41.430Z,17.50
2023-05-01T02:13:09.130Z,18.33
2023-05-01T02:15:37.705Z,18.07
2023-05-01T02:18:06.387Z,18.73
2023-05-01T02:20:33.977Z,17.33
2023-05-01T02:23:00.798Z,17.23
2023-05-01T02:25:30.473Z,17.50
2023-05-01T02:28:03.560Z,19.07
2023-05-01T02:30:30.163Z,18.90
2023-05-01T02:32:57.594Z,19.53
2023-05-01T02:35:24.493Z,17.83
2023-05-01T02:37:51.448Z,18.53
2023-05-01T02:40:18.538Z,18.50
2023-05-01T02:42:45.962Z,18.03
2023-05-01T02:45:20.479Z,17.23
2023-05-01T02:47:51.458Z,19.20
2023-05-01T02:50:18.891Z,19.60
2023-05-01T02:52:46.938Z,18.87
2023-05-01T02:55:32.863Z,18.53
2023-05-01T02:57:59.885Z,19.43
2023-05-01T03:00:27.712Z,20.60
2023-05-01T03:02:54.627Z,18.27
2023-05-01T03:05:21.121Z,19.43
2023-05-01T03:07:48.359Z,19.97
2023-05-01T03:10:14.859Z,20.50
2023-05-01T03:12:41.842Z,19.10
2023-05-01T03:15:09.243Z,20.10
2023-05-01T03:17:35.787Z,19.67
2023-05-01T03:20:02.410Z,20.33
2023-05-01T03:22:29.762Z,19.17
2023-05-01T03:24:56.319Z,19.50
2023-05-01T03:27:22.784Z,20.43
2023-05-01T03:29:49.686Z,20.97
2023-05-01T03:32:17.794Z,20.47
2023-05-01T03:34:46.214Z,20.70
2023-05-01T03:37:15.135Z,20.20
2023-05-01T03:39:41.938Z,19.10
2023-05-01T03:42:27.789Z,19.60
2023-05-01T03:45:00.372Z,19.83
2023-05-01T03:47:28.001Z,19.20
2023-05-01T03:49:55.319Z,20.43
2023-05-01T03:52:21.908Z,20.67
2023-05-01T03:54:49.898Z,20.63
2023-05-01T03:57:28.443Z,20.90
2023-05-01T03:59:55.272Z,20.53
2023-05-01T04:02:22.512Z,21.43
2023-05-01T04:04:49.949Z,21.03
2023-05-01T04:07:16.628Z,20.63
2023-05-01T04:09:45.220Z,20.83
2023-05-01T04:12:12.758Z,20.97
2023-05-01T04:14:39.293Z,20.40
2023-05-01T04:17:06.111Z,21.23
2023-05-01T04:19:35.757Z,20.57
2023-05-01T04:22:02.337Z,21.53
2023-05-01T04:24:30.970Z,22.63
2023-05-01T04:26:58.508Z,21.50
2023-05-01T04:29:24.954Z,22.53
2023-05-01T04:31:51.798Z,22.07
2023-05-01T04:34:18.319Z,21.73
2023-05-01T04:36:44.823Z,22.03
2023-05-01T04:39:11.798Z,22.17
2023-05-01T04:41:38.714Z,22.90
2023-05-01T04:44:05.913Z,21.73
2023-05-01T04:46:33.407Z,22.80
2023-05-01T04:49:00.518Z,22.03
2023-05-01T04:51:27.991Z,21.50
2023-05-01T04:53:55.684Z,22.23
2023-05-01T04:56:26.240Z,23.80
2023-05-01T04:58:57.181Z,22.73
2023-05-01T05:01:26.162Z,21.60
2023-05-01T05:03:53.203Z,22.23
2023-05-01T05:06:19.967Z,22.83
2023-05-01T05:08:46.505Z,22.63
2023-05-01T05:11:12.987Z,22.97
2023-05-01T05:13:48.932Z,22.20
2023-05-01T05:16:15.819Z,23.33
2023-05-01T05:18:42.438Z,22.37
2023-05-01T05:21:10.419Z,23.17
2023-05-01T05:23:38.363Z,21.50
2023-05-01T05:26:05.781Z,23.77
2023-05-01T05:28:32.310Z,21.87
2023-05-01T05:30:59.134Z,23.97
2023-05-01T05:33:26.406Z,22.63
2023-05-01T05:35:52.922Z,23.30
2023-05-01T05:38:23.275Z,23.90
2023-05-01T05:40:54.414Z,24.17
2023-05-01T05:43:21.920Z,24.37
2023-05-01T05:45:48.911Z,25.03
2023-05-01T05:48:15.539Z,22.40
2023-05-01T05:50:42.072Z,25.13
2023-05-01T05:53:09.948Z,22.07
2023-05-01T05:55:37.153Z,25.63
2023-05-01T05:58:07.528Z,25.23
2023-05-01T06:00:36.006Z,23.67
2023-05-01T06:03:05.239Z,23.53
2023-05-01T06:05:34.260Z,23.40
2023-05-01T06:08:00.760Z,24.77
2023-05-01T06:10:27.233Z,24.83
2023-05-01T06:13:03.799Z,24.77
2023-05-01T06:15:43.057Z,23.30
2023-05-01T06:18:09.663Z,24.53
2023-05-01T06:20:36.524Z,24.63
2023-05-01T06:23:04.831Z,24.50
2023-05-01T06:25:46.825Z,24.80
2023-05-01T06:28:13.352Z,24.07
2023-05-01T06:30:39.850Z,24.27
2023-05-01T06:33:06.438Z,24.77
2023-05-01T06:35:33.598Z,24.60
2023-05-01T06:38:00.230Z,24.90
2023-05-01T06:40:26.991Z,24.17
2023-05-01T06:42:53.990Z,24.33
2023-05-01T06:45:26.149Z,22.83
2023-05-01T06:47:53.968Z,23.93
2023-05-01T06:50:20.621Z,24.17
2023-05-01T06:52:47.101Z,24.73
2023-05-01T06:55:13.644Z,25.10
2023-05-01T06:57:40.384Z,24.53
2023-05-01T07:00:07.403Z,23.60
2023-05-01T07:02:35.370Z,23.90
2023-05-01T07:05:02.298Z,24.83
2023-05-01T07:07:29.136Z,24.00
2023-05-01T07:09:55.891Z,23.13
2023-05-01T07:12:23.327Z,24.60
2023-05-01T07:14:49.751Z,24.80
2023-05-01T07:17:16.330Z,24.80
2023-05-01T07:19:43.057Z,24.67
2023-05-01T07:22:09.497Z,23.73
2023-05-01T07:24:36.236Z,23.77
2023-05-01T07:27:02.907Z,25.03
2023-05-01T07:29:29.799Z,24.67
2023-05-01T07:31:56.346Z,24.57
2023-05-01T07:34:22.823Z,25.17
2023-05-01T07:36:49.381Z,23.70
2023-05-01T07:39:17.718Z,24.93
2023-05-01T07:41:44.365Z,25.13
2023-05-01T07:44:10.839Z,25.07
2023-05-01T07:46:37.703Z,22.27
2023-05-01T07:49:04.387Z,23.73
2023-05-01T07:51:31.801Z,24.13
2023-05-01T07:53:58.959Z,23.77
2023-05-01T07:56:25.535Z,23.73
2023-05-01T07:58:52.033Z,22.40
2023-05-01T08:01:18.673Z,23.77
2023-05-01T08:03:45.178Z,22.83
2023-05-01T08:06:11.785Z,22.70
2023-05-01T08:08:38.323Z,22.10
2023-05-01T08:11:05.051Z,21.40
2023-05-01T08:13:31.732Z,22.03
2023-05-01T08:16:02.960Z,21.97
2023-05-01T08:18:30.381Z,22.17
2023-05-01T08:20:56.874Z,21.23
2023-05-01T08:23:25.254Z,22.07
2023-05-01T08:25:52.340Z,21.70
2023-05-01T08:28:22.404Z,22.20
2023-05-01T08:30:51.640Z,22.17
2023-05-01T08:33:19.411Z,20.63
2023-05-01T08:35:45.925Z,21.67
2023-05-01T08:38:12.486Z,20.87
2023-05-01T08:40:40.918Z,21.37
2023-05-01T08:43:07.610Z,20.00
2023-05-01T08:45:36.478Z,19.73
2023-05-01T08:48:07.254Z,20.87
2023-05-01T08:50:36.422Z,20.00
2023-05-01T08:53:04.177Z,21.27
2023-05-01T08:55:32.329Z,19.23
2023-05-01T08:57:59.796Z,19.93
2023-05-01T09:00:27.762Z,19.93
2023-05-01T09:02:55.244Z,18.57
2023-05-01T09:05:21.922Z,19.57
2023-05-01T09:07:48.451Z,20.17
2023-05-01T09:10:18.997Z,18.17
2023-05-01T09:12:49.532Z,18.93
2023-05-01T09:15:16.518Z,19.97
2023-05-01T09:17:44.829Z,17.27
2023-05-01T09:20:11.732Z,19.70
2023-05-01T09:22:38.625Z,18.57
2023-05-01T09:25:05.554Z,18.73
2023-05-01T09:27:37.425Z,18.27
2023-05-01T09:30:05.984Z,18.17
2023-05-01T09:32:32.663Z,17.37
2023-05-01T09:35:13.947Z,17.07
2023-05-01T09:37:41.417Z,17.93
2023-05-01T09:40:12.816Z,17.93
2023-05-01T09:42:41.424Z,18.03
2023-05-01T09:45:15.059Z,16.60
2023-05-01T09:47:45.845Z,16.97
2023-05-01T09:50:29.400Z,17.53
2023-05-01T09:52:55.931Z,16.93
2023-05-01T09:55:25.345Z,16.57
2023-05-01T09:57:53.258Z,17.13
2023-05-01T10:00:21.984Z,15.83
2023-05-01T10:02:50.016Z,16.20
2023-05-01T10:05:17.612Z,16.03
2023-05-01T10:08:05.684Z,15.83
2023-05-01T10:10:32.135Z,16.20
2023-05-01T10:13:13.110Z,15.77
2023-05-01T10:15:39.664Z,16.63
2023-05-01T10:18:07.413Z,15.37
2023-05-01T10:20:33.926Z,14.73
2023-05-01T10:23:03.295Z,15.23
2023-05-01T10:25:31.261Z,16.37
2023-05-01T10:27:58.484Z,14.90
2023-05-01T10:30:29.884Z,15.63
2023-05-01T10:32:57.451Z,15.47
2023-05-01T10:35:33.243Z,14.33
2023-05-01T10:38:06.183Z,15.37
2023-05-01T10:40:38.744Z,16.03
2023-05-01T10:43:15.949Z,14.47
2023-05-01T10:45:43.935Z,14.93
2023-05-01T10:48:10.570Z,14.97
2023-05-01T10:51:17.210Z,13.87
2023-05-01T10:53:48.362Z,14.00
2023-05-01T10:56:30.079Z,14.33
2023-05-01T10:58:59.038Z,13.90
2023-05-01T11:01:28.236Z,13.73
2023-05-01T11:03:55.688Z,14.23
2023-05-01T11:06:23.164Z,14.20
2023-05-01T11:08:49.981Z,13.73
2023-05-01T11:11:19.492Z,13.57
2023-05-01T11:13:58.759Z,13.50
2023-05-01T11:16:41.885Z,13.17
2023-05-01T11:19:11.446Z,12.90
2023-05-01T11:21:40.504Z,13.33
2023-05-01T11:24:07.961Z,13.87
2023-05-01T11:26:42.252Z,13.50
2023-05-01T11:29:10.636Z,13.20
2023-05-01T11:31:38.131Z,13.33
2023-05-01T11:34:06.919Z,13.43
2023-05-01T11:36:50.238Z,13.30
2023-05-01T11:39:17.627Z,12.67
2023-05-01T11:41:44.226Z,13.27
2023-05-01T11:44:17.938Z,13.10
2023-05-01T11:46:44.610Z,13.43
2023-05-01T11:49:11.208Z,12.73
2023-05-01T11:51:37.769Z,13.17
2023-05-01T11:54:07.056Z,13.43
2023-05-01T11:56:35.237Z,13.23
2023-05-01T11:59:17.217Z,13.10
2023-05-01T12:01:45.675Z,11.77
2023-05-01T12:04:14.099Z,12.20
2023-05-01T12:06:45.704Z,11.97
2023-05-01T12:09:18.559Z,12.63
2023-05-01T12:11:52.283Z,13.20
2023-05-01T12:14:20.234Z,12.77
2023-05-01T12:16:47.383Z,12.07
2023-05-01T12:19:15.851Z,12.17
2023-05-01T12:21:42.505Z,11.43
2023-05-01T12:24:10.379Z,12.90
2023-05-01T12:26:37.712Z,12.03
2023-05-01T12:29:06.557Z,11.60
2023-05-01T12:31:33.609Z,11.70
2023-05-01T12:34:02.510Z,11.30
2023-05-01T12:36:31.930Z,11.50
2023-05-01T12:39:01.050Z,10.90
2023-05-01T12:41:36.812Z,11.40
2023-05-01T12:44:22.670Z,12.87
2023-05-01T12:47:02.819Z,11.60
2023-05-01T12:49:30.880Z,11.27
2023-05-01T12:51:59.065Z,11.10
2023-05-01T12:54:29.345Z,10.93
2023-05-01T12:57:16.216Z,10.73
2023-05-01T12:59:45.000Z,11.17
2023-05-01T13:02:15.765Z,11.00
2023-05-01T13:04:48.973Z,10.90
2023-05-01T13:07:17.596Z,10.80
2023-05-01T13:09:58.566Z,10.60
2023-05-01T13:12:27.147Z,10.87
2023-05-01T13:14:54.488Z,10.27
2023-05-01T13:17:31.962Z,10.80
2023-05-01T13:20:03.981Z,11.00
2023-05-01T13:22:38.141Z,10.83
2023-05-01T13:25:14.881Z,10.73
2023-05-01T13:27:41.970Z,10.53
2023-05-01T13:30:09.849Z,10.20
2023-05-01T13:32:40.934Z,10.00
2023-05-01T13:35:08.265Z,10.17
2023-05-01T13:37:39.896Z,10.27
2023-05-01T13:40:07.016Z,10.47
2023-05-01T13:42:33.515Z,10.47
2023-05-01T13:44:59.976Z,10.40
2023-05-01T13:47:27.488Z,9.37
2023-05-01T13:49:54.353Z,10.73
2023-05-01T13:52:21.255Z,9.70
2023-05-01T13:54:48.566Z,10.20
2023-05-01T13:57:16.052Z,10.13
2023-05-01T13:59:44.516Z,9.90
2023-05-01T14:02:31.490Z,10.40
2023-05-01T14:05:00.085Z,9.83
2023-05-01T14:07:27.472Z,9.50
2023-05-01T14:09:56.644Z,9.20
2023-05-01T14:12:32.856Z,9.13
2023-05-01T14:15:01.330Z,9.43
2023-05-01T14:17:32.222Z,10.17
2023-05-01T14:19:59.317Z,9.93
2023-05-01T14:22:29.451Z,9.33
2023-05-01T14:24:55.965Z,9.20
2023-05-01T14:27:22.451Z,8.93
2023-05-01T14:29:49.725Z,9.17
2023-05-01T14:32:16.244Z,8.97
2023-05-01T14:34:42.947Z,8.67
2023-05-01T14:37:09.797Z,8.60
2023-05-01T14:39:36.264Z,9.50
2023-05-01T14:42:05.955Z,8.73
2023-05-01T14:44:32.719Z,8.73
2023-05-01T14:47:00.257Z,9.20
2023-05-01T14:49:26.901Z,8.63
2023-05-01T14:51:54.099Z,9.03
2023-05-01T14:54:21.070Z,7.90
2023-05-01T14:56:48.912Z,8.43
2023-05-01T14:59:16.272Z,8.30
2023-05-01T15:01:43.925Z,8.77
2023-05-01T15:04:11.736Z,7.67
2023-05-01T15:06:38.543Z,8.23
2023-05-01T15:09:05.313Z,7.60
2023-05-01T15:11:31.912Z,8.23
2023-05-01T15:13:58.556Z,7.97
2023-05-01T15:16:25.003Z,7.87
2023-05-01T15:18:51.581Z,7.60
2023-05-01T15:21:18.349Z,8.33
2023-05-01T15:23:46.085Z,7.70
2023-05-01T15:26:12.555Z,8.70
2023-05-01T15:28:39.086Z,7.53
2023-05-01T15:31:05.881Z,7.97
2023-05-01T15:33:32.549Z,6.60
2023-05-01T15:35:59.122Z,7.77
2023-05-01T15:38:26.122Z,7.23
2023-05-01T15:40:52.590Z,7.77
2023-05-01T15:43:19.116Z,7.70
2023-05-01T15:45:45.982Z,8.20
2023-05-01T15:48:12.622Z,7.43
2023-05-01T15:50:39.308Z,7.70
2023-05-01T15:53:05.752Z,6.87
2023-05-01T15:55:32.360Z,7.20
2023-05-01T15:57:59.540Z,6.83
2023-05-01T16:00:26.367Z,6.87
2023-05-01T16:02:53.236Z,8.03
2023-05-01T16:05:22.978Z,6.77
2023-05-01T16:07:55.401Z,7.37
2023-05-01T16:10:22.830Z,6.53
2023-05-01T16:12:50.860Z,6.80
2023-05-01T16:15:18.005Z,6.50
2023-05-01T16:17:45.414Z,7.47
2023-05-01T16:20:13.130Z,6.33
2023-05-01T16:22:41.404Z,6.67
2023-05-01T16:25:09.626Z,6.57
2023-05-01T16:27:41.073Z,6.90
2023-05-01T16:30:09.090Z,6.67
2023-05-01T16:32:36.110Z,6.67
2023-05-01T16:35:05.330Z,6.70
2023-05-01T16:37:33.938Z,6.87
2023-05-01T16:40:00.823Z,6.40
2023-05-01T16:42:27.872Z,6.30
2023-05-01T16:44:54.349Z,6.13
2023-05-01T16:47:20.906Z,6.07
2023-05-01T16:49:47.481Z,6.33
2023-05-01T16:52:15.586Z,6.23
2023-05-01T16:54:42.104Z,6.53
2023-05-01T16:57:08.639Z,6.37
2023-05-01T16:59:35.348Z,6.00
2023-05-01T17:02:01.901Z,6.27
2023-05-01T17:04:28.531Z,6.17
2023-05-01T17:06:56.128Z,5.93
2023-05-01T17:09:22.826Z,5.67
2023-05-01T17:11:56.646Z,6.80
2023-05-01T17:14:23.416Z,6.37
2023-05-01T17:16:50.514Z,5.53
2023-05-01T17:19:17.157Z,6.13
2023-05-01T17:21:43.600Z,5.80
2023-05-01T17:24:10.095Z,6.27
2023-05-01T17:26:36.622Z,5.67
2023-05-01T17:29:03.567Z,5.23
2023-05-01T17:31:30.067Z,5.50
2023-05-01T17:33:56.530Z,5.40
2023-05-01T17:36:23.799Z,5.50
2023-05-01T17:38:50.442Z,5.50
2023-05-01T17:41:16.917Z,4.90
2023-05-01T17:43:44.794Z,5.43
2023-05-01T17:46:12.416Z,5.40
2023-05-01T17:48:38.858Z,5.40
2023-05-01T17:51:05.866Z,5.30
2023-05-01T17:53:32.685Z,5.53
2023-05-01T17:55:59.094Z,5.80
2023-05-01T17:58:25.561Z,5.80
2023-05-01T18:00:52.019Z,5.03
2023-05-01T18:03:18.574Z,5.67
2023-05-01T18:05:45.058Z,4.97
2023-05-01T18:08:11.574Z,5.93
2023-05-01T18:10:38.010Z,6.20
2023-05-01T18:13:04.635Z,5.93
2023-05-01T18:15:31.057Z,5.13
2023-05-01T18:17:57.587Z,5.13
2023-05-01T18:20:24.172Z,5.00
2023-05-01T18:22:51.031Z,5.40
2023-05-01T18:25:17.856Z,5.40
2023-05-01T18:27:45.165Z,5.40
2023-05-01T18:30:11.939Z,5.00
2023-05-01T18:32:47.407Z,4.33
2023-05-01T18:35:16.583Z,4.83
2023-05-01T18:37:43.792Z,5.20
2023-05-01T18:40:10.825Z,5.10
2023-05-01T18:42:37.304Z,4.80
2023-05-01T18:45:04.189Z,5.10
2023-05-01T18:47:32.336Z,5.13
2023-05-01T18:49:59.830Z,4.83
2023-05-01T18:52:26.611Z,4.60
2023-05-01T18:54:53.576Z,5.13
2023-05-01T18:57:20.027Z,4.70
2023-05-01T18:59:46.511Z,4.77
2023-05-01T19:02:13.018Z,4.67
2023-05-01T19:04:55.946Z,4.30
2023-05-01T19:07:23.658Z,4.90
2023-05-01T19:09:50.150Z,4.77
2023-05-01T19:12:16.656Z,4.13
2023-05-01T19:14:43.151Z,4.73
2023-05-01T19:17:10.138Z,4.90
2023-05-01T19:19:36.549Z,4.37
2023-05-01T19:22:03.077Z,4.70
2023-05-01T19:24:29.519Z,4.03
2023-05-01T19:26:55.947Z,4.13
2023-05-01T19:29:22.366Z,4.30
2023-05-01T19:31:49.227Z,4.27
2023-05-01T19:34:15.823Z,4.50
2023-05-01T19:36:42.501Z,4.17
2023-05-01T19:39:08.980Z,4.40
2023-05-01T19:41:35.408Z,4.93
2023-05-01T19:44:01.925Z,4.30
2023-05-01T19:46:28.415Z,4.63
2023-05-01T19:48:54.837Z,4.37
2023-05-01T19:51:21.483Z,4.20
2023-05-01T19:53:47.935Z,3.83
2023-05-01T19:56:14.427Z,4.27
2023-05-01T19:58:41.800Z,3.90
2023-05-01T20:01:11.613Z,4.13
2023-05-01T20:03:38.416Z,4.27
2023-05-01T20:06:06.248Z,4.00
2023-05-01T20:08:33.587Z,3.93
2023-05-01T20:11:01.478Z,4.03
2023-05-01T20:13:28.052Z,4.10
2023-05-01T20:15:54.490Z,4.10
2023-05-01T20:18:21.160Z,3.90
2023-05-01T20:20:47.700Z,3.90
2023-05-01T20:23:15.852Z,4.33
2023-05-01T20:25:42.855Z,3.80
2023-05-01T20:28:11.121Z,4.60
2023-05-01T20:30:43.367Z,3.77
2023-05-01T20:33:10.032Z,4.20
2023-05-01T20:35:37.072Z,4.10
2023-05-01T20:38:07.123Z,3.50
2023-05-01T20:40:33.858Z,3.37
2023-05-01T20:43:00.628Z,3.63
2023-05-01T20:45:29.055Z,3.10
2023-05-01T20:47:55.554Z,3.17
2023-05-01T20:50:22.106Z,3.60
2023-05-01T20:52:48.603Z,3.43
2023-05-01T20:55:15.118Z,3.73
2023-05-01T20:57:41.577Z,3.67
2023-05-01T21:00:08.686Z,3.23
2023-05-01T21:02:39.359Z,3.83
2023-05-01T21:05:07.276Z,3.30
2023-05-01T21:07:38.061Z,4.17
2023-05-01T21:10:10.715Z,3.60
2023-05-01T21:12:37.593Z,3.63
2023-05-01T21:15:04.623Z,3.60
2023-05-01T21:17:33.103Z,3.70
2023-05-01T21:20:00.181Z,3.37
2023-05-01T21:22:27.268Z,3.10
2023-05-01T21:24:55.269Z,3.83
2023-05-01T21:27:23.921Z,3.50
2023-05-01T21:29:55.900Z,3.43
2023-05-01T21:32:32.987Z,3.53
2023-05-01T21:35:03.617Z,3.27
2023-05-01T21:37:30.206Z,3.73
2023-05-01T21:40:00.801Z,3.33
2023-05-01T21:42:33.585Z,3.10
2023-05-01T21:45:00.347Z,3.87
2023-05-01T21:47:29.652Z,3.10
2023-05-01T21:49:56.926Z,3.50
2023-05-01T21:52:23.618Z,3.17
2023-05-01T21:54:50.441Z,3.00
2023-05-01T21:57:16.958Z,3.07
2023-05-01T21:59:45.009Z,3.57
2023-05-01T22:02:11.953Z,3.13
2023-05-01T22:04:38.785Z,3.17
2023-05-01T22:07:06.040Z,3.20
2023-05-01T22:09:33.224Z,3.27
2023-05-01T22:11:59.704Z,2.90
2023-05-01T22:14:33.582Z,3.20
2023-05-01T22:17:06.658Z,3.37
2023-05-01T22:19:33.287Z,3.30
2023-05-01T22:21:59.829Z,3.30
2023-05-01T22:24:26.268Z,3.03
2023-05-01T22:26:52.752Z,3.27
2023-05-01T22:29:19.147Z,3.17
2023-05-01T22:31:45.702Z,3.30
2023-05-01T22:34:12.149Z,3.17
2023-05-01T22:36:38.600Z,3.07
2023-05-01T22:39:05.171Z,3.17
2023-05-01T22:41:32.002Z,3.10
2023-05-01T22:43:58.454Z,2.83
2023-05-01T22:46:25.658Z,2.93
2023-05-01T22:48:52.156Z,3.03
2023-05-01T22:51:18.750Z,2.40
2023-05-01T22:53:45.428Z,3.27
2023-05-01T22:56:11.906Z,3.47
2023-05-01T22:58:38.497Z,3.23
2023-05-01T23:01:05.029Z,3.23
2023-05-01T23:03:33.000Z,2.90
2023-05-01T23:06:00.262Z,3.00
2023-05-01T23:08:26.984Z,3.20
2023-05-01T23:10:53.519Z,2.90
2023-05-01T23:13:23.298Z,3.33
2023-05-01T23:15:50.376Z,3.00
2023-05-01T23:18:26.914Z,2.87
2023-05-01T23:20:53.707Z,2.90
2023-05-01T23:23:21.139Z,3.47
2023-05-01T23:25:49.169Z,2.73
2023-05-01T23:28:21.004Z,2.97
2023-05-01T23:31:01.829Z,3.00
2023-05-01T23:33:34.691Z,3.10
2023-05-01T23:36:01.586Z,2.97
2023-05-01T23:38:28.028Z,3.07
2023-05-01T23:40:54.517Z,2.80
2023-05-01T23:43:21.226Z,2.77
2023-05-01T23:45:48.244Z,3.10
2023-05-01T23:48:14.950Z,2.80
2023-05-01T23:50:41.593Z,2.97
2023-05-01T23:53:08.745Z,2.70
2023-05-01T23:55:36.074Z,3.17
2023-05-01T23:58:02.625Z,2.80
